createdAt,value
2018-04-01T00:01:50.439Z,6.40
2018-04-01T00:04:17.618Z,6.50
2018-04-01T00:06:44.633Z,6.40
2018-04-01T00:09:11.720Z,6.40
2018-04-01T00:11:38.824Z,6.50
2018-04-01T00:14:05.836Z,6.40
2018-04-01T00:16:32.862Z,6.30
2018-04-01T00:18:59.867Z,6.40
2018-04-01T00:21:26.862Z,6.20
2018-04-01T00:23:53.891Z,6.20
2018-04-01T00:26:20.896Z,6.30
2018-04-01T00:28:47.956Z,6.30
2018-04-01T00:31:14.996Z,6.40
2018-04-01T00:33:42.083Z,6.50
2018-04-01T00:36:09.130Z,6.40
2018-04-01T00:38:36.211Z,6.40
2018-04-01T00:41:04.084Z,6.20
2018-04-01T00:43:31.958Z,6.30
2018-04-01T00:45:59.783Z,6.30
2018-04-01T00:48:26.824Z,6.30
2018-04-01T00:50:53.838Z,6.40
2018-04-01T00:53:20.894Z,6.40
2018-04-01T00:55:47.914Z,6.60
2018-04-01T00:58:15.705Z,6.30
2018-04-01T01:00:42.727Z,6.30
2018-04-01T01:03:10.491Z,6.40
2018-04-01T01:05:38.257Z,6.40
2018-04-01T01:08:06.034Z,6.60
2018-04-01T01:10:33.032Z,6.60
2018-04-01T01:13:00.092Z,6.50
2018-04-01T01:15:27.115Z,6.30
2018-04-01T01:17:54.132Z,6.50
2018-04-01T01:20:21.117Z,6.60
2018-04-01T01:22:48.256Z,6.70
2018-04-01T01:25:15.281Z,6.60
2018-04-01T01:27:42.307Z,6.50
2018-04-01T01:30:09.333Z,6.70
2018-04-01T01:32:37.151Z,6.70
2018-04-01T01:35:04.175Z,6.70
2018-04-01T01:37:31.213Z,6.70
2018-04-01T01:39:58.280Z,6.60
2018-04-01T01:42:25.281Z,6.60
2018-04-01T01:44:53.299Z,6.50
2018-04-01T01:47:20.296Z,6.50
2018-04-01T01:49:48.108Z,6.50
2018-04-01T01:52:15.236Z,6.50
2018-04-01T01:54:42.226Z,6.50
2018-04-01T01:57:09.287Z,6.60
2018-04-01T01:59:36.300Z,6.60
2018-04-01T02:02:03.337Z,6.40
2018-04-01T02:04:30.422Z,6.40
2018-04-01T02:06:57.427Z,6.30
2018-04-01T02:09:24.478Z,6.40
2018-04-01T02:11:51.487Z,6.40
2018-04-01T02:14:19.299Z,6.40
2018-04-01T02:16:46.378Z,6.40
2018-04-01T02:19:13.488Z,6.50
2018-04-01T02:21:40.507Z,6.50
2018-04-01T02:24:08.295Z,6.60
2018-04-01T02:26:35.398Z,6.60
2018-04-01T02:29:02.401Z,6.60
2018-04-01T02:31:29.518Z,6.50
2018-04-01T02:33:56.504Z,6.70
2018-04-01T02:36:23.498Z,6.60
2018-04-01T02:38:51.300Z,6.80
2018-04-01T02:41:18.328Z,6.80
2018-04-01T02:43:46.115Z,6.70
2018-04-01T02:46:13.189Z,6.70
2018-04-01T02:48:40.179Z,6.80
2018-04-01T02:51:07.986Z,6.40
2018-04-01T02:53:34.996Z,6.40
2018-04-01T02:56:02.836Z,6.60
2018-04-01T02:58:29.994Z,6.60
2018-04-01T03:00:57.017Z,6.70
2018-04-01T03:03:24.064Z,6.60
2018-04-01T03:05:51.184Z,6.50
2018-04-01T03:08:18.199Z,6.50
2018-04-01T03:10:45.987Z,6.30
2018-04-01T03:13:13.047Z,6.30
2018-04-01T03:15:40.083Z,6.20
2018-04-01T03:18:07.156Z,6.10
2018-04-01T03:20:34.200Z,6.40
2018-04-01T03:23:01.245Z,6.40
2018-04-01T03:25:28.262Z,6.60
2018-04-01T03:27:55.288Z,6.60
2018-04-01T03:30:23.102Z,6.90
2018-04-01T03:32:50.125Z,6.80
2018-04-01T03:35:17.197Z,7.00
2018-04-01T03:37:44.224Z,7.10
2018-04-01T03:40:11.242Z,7.20
2018-04-01T03:42:39.052Z,7.40
2018-04-01T03:45:06.102Z,7.40
2018-04-01T03:47:33.147Z,7.50
2018-04-01T03:50:00.152Z,7.50
2018-04-01T03:52:27.994Z,7.60
2018-04-01T03:54:54.989Z,7.50
2018-04-01T03:57:22.787Z,7.60
2018-04-01T03:59:49.819Z,7.60
2018-04-01T04:02:16.843Z,7.60
2018-04-01T04:04:43.905Z,7.50
2018-04-01T04:07:10.913Z,7.40
2018-04-01T04:09:38.708Z,7.50
2018-04-01T04:12:05.778Z,7.40
2018-04-01T04:14:32.780Z,7.50
2018-04-01T04:17:00.724Z,7.60
2018-04-01T04:19:27.799Z,7.50
2018-04-01T04:21:55.662Z,7.50
2018-04-01T04:24:23.490Z,7.40
2018-04-01T04:26:50.837Z,7.40
2018-04-01T04:29:18.047Z,7.20
2018-04-01T04:31:45.104Z,7.20
2018-04-01T04:34:12.109Z,7.10
2018-04-01T04:36:39.136Z,6.60
2018-04-01T04:39:06.242Z,6.50
2018-04-01T04:41:34.210Z,6.00
2018-04-01T04:44:01.256Z,5.90
2018-04-01T04:46:28.349Z,6.20
2018-04-01T04:48:55.544Z,6.10
2018-04-01T04:51:23.700Z,6.00
2018-04-01T04:53:50.850Z,5.90
2018-04-01T04:56:18.927Z,6.00
2018-04-01T04:58:46.909Z,6.00
2018-04-01T05:01:14.727Z,5.90
2018-04-01T05:03:41.845Z,6.00
2018-04-01T05:06:09.125Z,6.00
2018-04-01T05:08:36.449Z,6.10
2018-04-01T05:11:03.798Z,5.90
2018-04-01T05:13:30.919Z,5.80
2018-04-01T05:15:58.764Z,5.70
2018-04-01T05:18:26.014Z,5.70
2018-04-01T05:20:53.824Z,5.80
2018-04-01T05:23:21.018Z,5.70
2018-04-01T05:25:48.235Z,5.80
2018-04-01T05:28:15.322Z,5.80
2018-04-01T05:30:42.483Z,5.70
2018-04-01T05:33:09.549Z,5.80
2018-04-01T05:35:38.067Z,5.70
2018-04-01T05:38:05.238Z,5.80
2018-04-01T05:40:32.441Z,5.90
2018-04-01T05:43:00.599Z,6.00
2018-04-01T05:45:27.954Z,6.00
2018-04-01T05:47:55.324Z,6.10
2018-04-01T05:50:23.266Z,6.10
2018-04-01T05:52:50.405Z,6.10
2018-04-01T05:55:17.532Z,6.20
2018-04-01T05:57:44.683Z,6.40
2018-04-01T06:00:11.755Z,6.20
2018-04-01T06:02:38.942Z,6.10
2018-04-01T06:05:06.834Z,6.40
2018-04-01T06:07:34.050Z,6.30
2018-04-01T06:10:01.879Z,6.00
2018-04-01T06:12:28.962Z,6.00
2018-04-01T06:14:56.100Z,6.00
2018-04-01T06:17:23.310Z,6.00
2018-04-01T06:19:50.538Z,5.70
2018-04-01T06:22:17.629Z,5.70
2018-04-01T06:24:44.723Z,5.60
2018-04-01T06:27:12.660Z,6.00
2018-04-01T06:29:39.702Z,5.90
2018-04-01T06:32:06.915Z,5.90
2018-04-01T06:34:35.034Z,5.70
2018-04-01T06:37:02.152Z,5.90
2018-04-01T06:39:29.344Z,5.80
2018-04-01T06:41:56.536Z,5.70
2018-04-01T06:44:23.687Z,5.90
2018-04-01T06:46:50.816Z,5.70
2018-04-01T06:49:18.703Z,6.20
2018-04-01T06:51:45.788Z,6.20
2018-04-01T06:54:12.963Z,6.40
2018-04-01T06:57:01.049Z,6.50
2018-04-01T06:59:28.909Z,6.70
2018-04-01T07:01:55.983Z,6.70
2018-04-01T07:04:23.058Z,6.70
2018-04-01T07:06:50.075Z,6.80
2018-04-01T07:09:17.126Z,7.10
2018-04-01T07:11:44.164Z,7.00
2018-04-01T07:14:11.195Z,6.80
2018-04-01T07:16:38.215Z,6.90
2018-04-01T07:19:06.039Z,6.90
2018-04-01T07:21:33.075Z,6.90
2018-04-01T07:24:00.083Z,6.90
2018-04-01T07:26:27.857Z,6.50
2018-04-01T07:28:54.870Z,6.50
2018-04-01T07:31:21.865Z,6.30
2018-04-01T07:33:48.901Z,6.30
2018-04-01T07:36:15.943Z,6.30
2018-04-01T07:38:42.909Z,6.20
2018-04-01T07:41:09.918Z,6.20
2018-04-01T07:43:37.697Z,6.20
2018-04-01T07:46:05.666Z,6.20
2018-04-01T07:48:32.664Z,6.40
2018-04-01T07:50:59.665Z,6.40
2018-04-01T07:53:26.679Z,6.30
2018-04-01T07:55:53.771Z,6.20
2018-04-01T07:58:20.794Z,6.30
2018-04-01T08:00:48.560Z,5.90
2018-04-01T08:03:16.319Z,6.00
2018-04-01T08:05:44.095Z,5.70
2018-04-01T08:08:11.109Z,5.70
2018-04-01T08:10:38.133Z,5.70
2018-04-01T08:13:05.143Z,5.70
2018-04-01T08:15:32.140Z,5.80
2018-04-01T08:18:00.244Z,5.70
2018-04-01T08:20:28.009Z,6.00
2018-04-01T08:22:55.786Z,6.30
2018-04-01T08:25:22.787Z,6.30
2018-04-01T08:27:49.823Z,5.90
2018-04-01T08:30:16.933Z,5.70
2018-04-01T08:32:44.134Z,5.70
2018-04-01T08:35:11.264Z,5.80
2018-04-01T08:37:38.321Z,6.10
2018-04-01T08:40:05.501Z,6.20
2018-04-01T08:42:33.405Z,5.70
2018-04-01T08:45:08.933Z,5.70
2018-04-01T08:47:36.096Z,5.80
2018-04-01T08:50:04.664Z,5.90
2018-04-01T08:52:31.709Z,5.60
2018-04-01T08:54:59.507Z,5.70
2018-04-01T08:57:26.579Z,5.70
2018-04-01T08:59:53.693Z,5.90
2018-04-01T09:02:20.787Z,5.90
2018-04-01T09:04:47.895Z,6.10
2018-04-01T09:07:15.112Z,5.80
2018-04-01T09:09:42.967Z,6.30
2018-04-01T09:12:10.056Z,6.30
2018-04-01T09:14:37.241Z,6.40
2018-04-01T09:17:04.438Z,6.40
2018-04-01T09:19:32.373Z,6.50
2018-04-01T09:22:00.494Z,6.70
2018-04-01T09:24:27.592Z,6.60
2018-04-01T09:26:55.487Z,6.70
2018-04-01T09:29:23.299Z,6.80
2018-04-01T09:31:50.483Z,6.80
2018-04-01T09:34:17.638Z,7.00
2018-04-01T09:36:44.727Z,7.00
2018-04-01T09:39:11.834Z,6.90
2018-04-01T09:41:39.026Z,7.00
2018-04-01T09:44:06.325Z,7.10
2018-04-01T09:46:33.526Z,7.20
2018-04-01T09:49:00.692Z,7.40
2018-04-01T09:51:27.932Z,7.60
2018-04-01T09:53:55.286Z,7.50
2018-04-01T09:56:22.336Z,7.40
2018-04-01T09:58:49.347Z,7.50
2018-04-01T10:01:17.925Z,7.50
2018-04-01T10:03:45.745Z,7.50
2018-04-01T10:06:13.355Z,7.60
2018-04-01T10:08:41.807Z,7.60
2018-04-01T10:11:09.397Z,7.60
2018-04-01T10:13:37.766Z,7.90
2018-04-01T10:16:05.507Z,8.00
2018-04-01T10:18:33.260Z,8.30
2018-04-01T10:21:00.813Z,8.10
2018-04-01T10:23:28.422Z,8.60
2018-04-01T10:25:56.806Z,8.80
2018-04-01T10:28:25.120Z,8.40
2018-04-01T10:30:52.652Z,8.50
2018-04-01T10:33:20.983Z,8.20
2018-04-01T10:35:48.540Z,8.20
2018-04-01T10:38:16.043Z,8.60
2018-04-01T10:40:43.654Z,8.60
2018-04-01T10:43:11.227Z,8.50
2018-04-01T10:45:38.767Z,8.70
2018-04-01T10:48:06.387Z,9.20
2018-04-01T10:50:34.702Z,9.50
2018-04-01T10:53:02.212Z,9.40
2018-04-01T10:55:30.031Z,9.70
2018-04-01T10:57:57.087Z,9.60
2018-04-01T11:00:24.136Z,9.90
2018-04-01T11:02:51.169Z,10.30
2018-04-01T11:05:18.408Z,10.40
2018-04-01T11:07:45.474Z,10.50
2018-04-01T11:10:12.541Z,10.00
2018-04-01T11:12:39.748Z,10.30
2018-04-01T11:15:06.875Z,10.20
2018-04-01T11:17:34.775Z,9.90
2018-04-01T11:20:01.776Z,9.90
2018-04-01T11:22:29.595Z,10.60
2018-04-01T11:24:56.726Z,10.50
2018-04-01T11:27:23.842Z,10.10
2018-04-01T11:29:51.718Z,10.70
2018-04-01T11:32:19.563Z,10.40
2018-04-01T11:34:46.714Z,10.40
2018-04-01T11:37:13.782Z,10.00
2018-04-01T11:39:41.584Z,8.90
2018-04-01T11:42:08.600Z,8.90
2018-04-01T11:44:36.435Z,9.40
2018-04-01T11:47:03.513Z,9.30
2018-04-01T11:49:31.406Z,9.50
2018-04-01T11:51:58.541Z,9.40
2018-04-01T11:54:25.595Z,9.70
2018-04-01T11:56:52.723Z,9.90
2018-04-01T11:59:19.894Z,10.20
2018-04-01T12:01:46.942Z,9.70
2018-04-01T12:04:13.982Z,9.70
2018-04-01T12:06:41.168Z,9.50
2018-04-01T12:09:08.234Z,9.40
2018-04-01T12:11:36.070Z,9.80
2018-04-01T12:14:03.092Z,9.80
2018-04-01T12:16:30.173Z,9.70
2018-04-01T12:18:57.264Z,9.70
2018-04-01T12:21:25.066Z,9.50
2018-04-01T12:23:52.175Z,9.50
2018-04-01T12:26:20.043Z,9.50
2018-04-01T12:28:47.877Z,9.80
2018-04-01T12:31:14.867Z,9.80
2018-04-01T12:33:42.732Z,9.40
2018-04-01T12:36:10.590Z,9.70
2018-04-01T12:38:38.430Z,9.40
2018-04-01T12:41:05.512Z,9.40
2018-04-01T12:43:33.267Z,9.40
2018-04-01T12:46:01.044Z,10.00
2018-04-01T12:48:28.842Z,10.50
2018-04-01T12:50:55.889Z,10.50
2018-04-01T12:53:23.028Z,9.60
2018-04-01T12:55:50.351Z,9.50
2018-04-01T12:58:18.146Z,9.60
2018-04-01T13:00:45.216Z,9.60
2018-04-01T13:03:12.282Z,9.70
2018-04-01T13:05:39.367Z,10.90
2018-04-01T13:08:07.193Z,9.60
2018-04-01T13:10:34.251Z,9.60
2018-04-01T13:13:01.283Z,9.80
2018-04-01T13:15:28.339Z,10.20
2018-04-01T13:17:55.406Z,11.60
2018-04-01T13:20:22.596Z,11.40
2018-04-01T13:22:49.676Z,12.00
2018-04-01T13:25:16.687Z,11.50
2018-04-01T13:27:43.684Z,10.30
2018-04-01T13:30:10.704Z,9.70
2018-04-01T13:32:37.724Z,8.90
2018-04-01T13:35:04.779Z,9.00
2018-04-01T13:37:31.869Z,9.10
2018-04-01T13:39:58.951Z,9.10
2018-04-01T13:42:26.767Z,8.10
2018-04-01T13:44:53.850Z,8.00
2018-04-01T13:47:20.972Z,7.80
2018-04-01T13:49:48.088Z,8.00
2018-04-01T13:52:15.187Z,7.90
2018-04-01T13:54:42.425Z,7.80
2018-04-01T13:57:09.478Z,7.50
2018-04-01T13:59:36.568Z,7.80
2018-04-01T14:02:04.369Z,9.20
2018-04-01T14:04:31.499Z,9.20
2018-04-01T14:06:58.580Z,10.20
2018-04-01T14:09:25.620Z,10.90
2018-04-01T14:11:52.640Z,10.80
2018-04-01T14:14:19.698Z,11.00
2018-04-01T14:16:46.765Z,11.10
2018-04-01T14:19:13.819Z,10.20
2018-04-01T14:21:40.934Z,10.30
2018-04-01T14:24:08.048Z,10.50
2018-04-01T14:26:35.867Z,9.90
2018-04-01T14:29:02.998Z,9.80
2018-04-01T14:31:30.097Z,9.20
2018-04-01T14:33:57.129Z,9.10
2018-04-01T14:36:24.236Z,9.10
2018-04-01T14:38:51.295Z,9.10
2018-04-01T14:41:18.299Z,9.00
2018-04-01T14:43:45.420Z,8.60
2018-04-01T14:46:12.614Z,8.70
2018-04-01T14:48:40.438Z,8.20
2018-04-01T14:51:07.516Z,8.20
2018-04-01T14:53:35.418Z,8.10
2018-04-01T14:56:02.595Z,8.10
2018-04-01T14:58:29.642Z,8.20
2018-04-01T15:00:56.737Z,8.10
2018-04-01T15:03:24.674Z,8.20
2018-04-01T15:05:51.822Z,8.20
2018-04-01T15:08:18.985Z,8.80
2018-04-01T15:10:46.120Z,9.50
2018-04-01T15:13:13.166Z,10.60
2018-04-01T15:15:41.061Z,10.50
2018-04-01T15:18:08.244Z,9.70
2018-04-01T15:20:35.327Z,8.70
2018-04-01T15:23:02.532Z,8.60
2018-04-01T15:25:29.667Z,9.30
2018-04-01T15:27:57.561Z,11.10
2018-04-01T15:30:24.826Z,11.10
2018-04-01T15:32:52.126Z,10.80
2018-04-01T15:35:19.385Z,10.00
2018-04-01T15:37:47.672Z,8.50
2018-04-01T15:40:15.586Z,8.30
2018-04-01T15:42:42.590Z,8.20
2018-04-01T15:45:10.532Z,7.70
2018-04-01T15:47:37.705Z,7.60
2018-04-01T15:50:05.641Z,9.80
2018-04-01T15:52:32.706Z,9.80
2018-04-01T15:54:59.839Z,11.70
2018-04-01T15:57:27.255Z,10.00
2018-04-01T15:59:54.469Z,9.40
2018-04-01T16:02:22.612Z,11.10
2018-04-01T16:04:50.229Z,11.10
2018-04-01T16:07:17.386Z,10.80
2018-04-01T16:09:44.760Z,11.10
2018-04-01T16:12:11.975Z,11.30
2018-04-01T16:14:39.799Z,10.70
2018-04-01T16:17:07.010Z,10.60
2018-04-01T16:19:34.493Z,11.10
2018-04-01T16:22:04.278Z,9.80
2018-04-01T16:24:31.467Z,9.30
2018-04-01T16:26:58.578Z,9.20
2018-04-01T16:29:25.755Z,10.30
2018-04-01T16:31:52.852Z,10.00
2018-04-01T16:34:21.016Z,8.80
2018-04-01T16:36:48.920Z,8.50
2018-04-01T16:39:16.146Z,8.50
2018-04-01T16:41:44.344Z,7.80
2018-04-01T16:44:12.518Z,7.80
2018-04-01T16:46:39.872Z,7.80
2018-04-01T16:49:06.993Z,7.80
2018-04-01T16:51:34.990Z,7.50
2018-04-01T16:54:02.449Z,7.50
2018-04-01T16:56:30.088Z,7.40
2018-04-01T16:58:58.080Z,7.30
2018-04-01T17:01:25.303Z,7.30
2018-04-01T17:03:53.505Z,6.90
2018-04-01T17:06:21.064Z,6.90
2018-04-01T17:08:48.374Z,6.90
2018-04-01T17:11:15.829Z,7.00
2018-04-01T17:13:43.177Z,7.10
2018-04-01T17:16:10.481Z,7.10
2018-04-01T17:18:37.735Z,6.90
2018-04-01T17:21:05.193Z,6.90
2018-04-01T17:23:32.966Z,6.30
2018-04-01T17:26:00.077Z,5.90
2018-04-01T17:28:28.384Z,5.50
2018-04-01T17:30:55.636Z,5.50
2018-04-01T17:33:23.024Z,5.30
2018-04-01T17:35:50.224Z,5.40
2018-04-01T17:38:17.400Z,5.20
2018-04-01T17:40:44.645Z,5.30
2018-04-01T17:43:11.859Z,5.20
2018-04-01T17:45:39.695Z,5.40
2018-04-01T17:48:06.966Z,5.40
2018-04-01T17:50:34.363Z,5.30
2018-04-01T17:53:01.621Z,5.30
2018-04-01T17:55:28.771Z,5.00
2018-04-01T17:57:56.024Z,5.00
2018-04-01T18:00:23.147Z,4.90
2018-04-01T18:02:50.987Z,5.40
2018-04-01T18:05:18.019Z,5.40
2018-04-01T18:07:45.124Z,5.50
2018-04-01T18:10:12.210Z,5.30
2018-04-01T18:12:39.242Z,5.50
2018-04-01T18:15:06.315Z,5.40
2018-04-01T18:17:33.310Z,5.50
2018-04-01T18:20:00.354Z,5.60
2018-04-01T18:22:27.353Z,5.50
2018-04-01T18:24:54.402Z,5.60
2018-04-01T18:27:21.438Z,5.70
2018-04-01T18:29:48.442Z,5.60
2018-04-01T18:32:16.230Z,5.60
2018-04-01T18:34:43.287Z,5.60
2018-04-01T18:37:10.366Z,5.20
2018-04-01T18:39:37.396Z,5.30
2018-04-01T18:42:04.560Z,5.30
2018-04-01T18:44:31.671Z,5.20
2018-04-01T18:46:58.667Z,5.30
2018-04-01T18:49:25.692Z,5.40
2018-04-01T18:51:52.703Z,5.30
2018-04-01T18:54:19.748Z,5.50
2018-04-01T18:56:46.772Z,5.40
2018-04-01T18:59:14.563Z,4.60
2018-04-01T19:01:41.641Z,4.60
2018-04-01T19:04:08.626Z,4.70
2018-04-01T19:06:36.400Z,4.30
2018-04-01T19:09:04.197Z,4.10
2018-04-01T19:11:31.268Z,4.10
2018-04-01T19:13:58.316Z,4.10
2018-04-01T19:16:25.825Z,3.70
2018-04-01T19:18:53.303Z,3.60
2018-04-01T19:21:20.812Z,3.60
2018-04-01T19:23:48.319Z,4.10
2018-04-01T19:26:15.846Z,4.30
2018-04-01T19:28:44.165Z,4.30
2018-04-01T19:31:11.623Z,4.30
2018-04-01T19:33:39.135Z,4.30
2018-04-01T19:36:07.614Z,4.50
2018-04-01T19:38:35.962Z,4.10
2018-04-01T19:41:03.547Z,4.10
2018-04-01T19:43:31.816Z,4.60
2018-04-01T19:45:59.353Z,4.60
2018-04-01T19:48:27.214Z,4.70
2018-04-01T19:50:54.916Z,4.50
2018-04-01T19:53:23.538Z,4.80
2018-04-01T19:55:51.290Z,4.80
2018-04-01T19:58:19.268Z,5.00
2018-04-01T20:00:46.764Z,4.90
2018-04-01T20:03:14.694Z,5.00
2018-04-01T20:05:42.716Z,5.00
2018-04-01T20:08:10.311Z,4.80
2018-04-01T20:10:37.924Z,4.60
2018-04-01T20:13:05.906Z,4.50
2018-04-01T20:15:33.525Z,4.50
2018-04-01T20:18:01.120Z,4.50
2018-04-01T20:20:28.850Z,4.40
2018-04-01T20:22:56.406Z,4.50
2018-04-01T20:25:24.182Z,4.60
2018-04-01T20:27:52.130Z,4.40
2018-04-01T20:30:20.099Z,4.60
2018-04-01T20:32:47.637Z,4.80
2018-04-01T20:35:15.403Z,5.00
2018-04-01T20:37:43.957Z,5.20
2018-04-01T20:40:11.594Z,5.10
2018-04-01T20:42:39.277Z,5.30
2018-04-01T20:45:06.994Z,5.30
2018-04-01T20:47:34.603Z,5.20
2018-04-01T20:50:02.225Z,4.90
2018-04-01T20:52:29.979Z,4.80
2018-04-01T20:54:57.566Z,4.90
2018-04-01T20:57:25.255Z,4.90
2018-04-01T20:59:54.089Z,4.90
2018-04-01T21:02:21.657Z,4.90
2018-04-01T21:04:49.310Z,5.00
2018-04-01T21:07:17.079Z,5.20
2018-04-01T21:09:44.797Z,5.30
2018-04-01T21:12:12.437Z,5.40
2018-04-01T21:14:40.233Z,5.40
2018-04-01T21:17:08.030Z,5.30
2018-04-01T21:19:35.924Z,5.40
2018-04-01T21:22:03.819Z,5.30
2018-04-01T21:24:31.419Z,5.30
2018-04-01T21:26:59.024Z,5.20
2018-04-01T21:29:27.407Z,5.50
2018-04-01T21:31:54.943Z,5.40
2018-04-01T21:34:22.449Z,5.50
2018-04-01T21:36:50.041Z,5.30
2018-04-01T21:39:17.596Z,5.30
2018-04-01T21:41:45.109Z,5.30
2018-04-01T21:44:12.678Z,5.30
2018-04-01T21:46:40.978Z,5.30
2018-04-01T21:49:09.330Z,5.30
2018-04-01T21:51:36.928Z,5.30
2018-04-01T21:54:04.709Z,5.30
2018-04-01T21:56:32.860Z,5.20
2018-04-01T21:59:00.356Z,5.10
2018-04-01T22:01:27.855Z,5.30
2018-04-01T22:03:56.203Z,5.20
2018-04-01T22:06:23.769Z,5.20
2018-04-01T22:08:51.411Z,5.30
2018-04-01T22:11:19.049Z,5.40
2018-04-01T22:13:46.591Z,5.40
2018-04-01T22:16:14.166Z,5.50
2018-04-01T22:18:41.765Z,5.60
2018-04-01T22:21:09.328Z,5.70
2018-04-01T22:23:37.021Z,5.90
2018-04-01T22:26:05.526Z,5.90
2018-04-01T22:28:33.192Z,5.90
2018-04-01T22:31:00.826Z,5.90
2018-04-01T22:33:29.218Z,6.20
2018-04-01T22:35:56.964Z,6.20
2018-04-01T22:38:25.238Z,6.40
2018-04-01T22:40:53.579Z,6.60
2018-04-01T22:43:21.141Z,6.50
2018-04-01T22:45:48.678Z,6.60
2018-04-01T22:48:16.198Z,6.70
2018-04-01T22:50:44.470Z,6.80
2018-04-01T22:53:12.741Z,6.80
2018-04-01T22:55:40.276Z,6.70
2018-04-01T22:58:07.808Z,6.70
2018-04-01T23:00:35.334Z,6.70
2018-04-01T23:03:03.602Z,6.60
2018-04-01T23:05:31.877Z,6.50
2018-04-01T23:08:00.228Z,6.40
2018-04-01T23:10:27.802Z,6.40
2018-04-01T23:12:55.289Z,6.30
2018-04-01T23:15:22.810Z,6.20
2018-04-01T23:17:50.319Z,6.20
2018-04-01T23:20:17.855Z,6.30
2018-04-01T23:22:46.210Z,6.30
2018-04-01T23:25:13.708Z,6.30
2018-04-01T23:27:41.358Z,6.30
2018-04-01T23:30:09.897Z,6.20
2018-04-01T23:32:37.727Z,6.20
2018-04-01T23:35:05.215Z,6.20
2018-04-01T23:37:33.130Z,6.00
2018-04-01T23:40:01.428Z,5.90
2018-04-01T23:42:29.476Z,5.90
2018-04-01T23:44:57.944Z,6.00
2018-04-01T23:47:26.225Z,5.90
2018-04-01T23:49:54.600Z,5.90
2018-04-01T23:52:22.910Z,5.90
2018-04-01T23:54:50.427Z,5.90
2018-04-01T23:57:17.999Z,6.00
2018-04-01T23:59:46.280Z,5.90
